createdAt,value
2023-02-23T00:02:43.929Z,81.40
2023-02-23T00:05:32.163Z,81.40
2023-02-23T00:08:18.380Z,81.50
2023-02-23T00:11:11.560Z,81.80
2023-02-23T00:13:57.519Z,82.40
2023-02-23T00:16:45.483Z,82.40
2023-02-23T00:19:33.529Z,82.90
2023-02-23T00:22:19.796Z,82.50
2023-02-23T00:25:15.160Z,82.30
2023-02-23T00:28:01.354Z,82.00
2023-02-23T00:30:47.452Z,83.00
2023-02-23T00:33:34.706Z,84.00
2023-02-23T00:36:23.044Z,84.60
2023-02-23T00:39:21.543Z,85.60
2023-02-23T00:42:07.912Z,86.20
2023-02-23T00:44:53.905Z,86.60
2023-02-23T00:47:42.802Z,87.00
2023-02-23T00:50:33.006Z,87.00
2023-02-23T00:53:20.456Z,87.20
2023-02-23T00:56:07.468Z,86.90
2023-02-23T00:58:56.171Z,87.50
2023-02-23T01:01:45.398Z,88.00
2023-02-23T01:04:31.567Z,88.00
2023-02-23T01:07:17.671Z,88.00
2023-02-23T01:10:18.882Z,88.00
2023-02-23T01:13:06.827Z,88.20
2023-02-23T01:15:52.856Z,88.70
2023-02-23T01:18:40.257Z,88.40
2023-02-23T01:21:29.723Z,88.40
2023-02-23T01:24:15.923Z,88.80
2023-02-23T01:27:02.380Z,89.50
2023-02-23T01:29:48.712Z,90.00
2023-02-23T01:32:36.772Z,90.00
2023-02-23T01:35:23.054Z,90.20
2023-02-23T01:38:09.595Z,90.30
2023-02-23T01:40:55.705Z,90.40
2023-02-23T01:44:15.105Z,90.50
2023-02-23T01:47:01.545Z,90.50
2023-02-23T01:49:47.662Z,90.50
2023-02-23T01:52:37.043Z,90.70
2023-02-23T01:55:25.920Z,90.90
2023-02-23T01:58:16.544Z,91.10
2023-02-23T02:01:03.015Z,91.20
2023-02-23T02:03:56.120Z,91.20
2023-02-23T02:06:44.736Z,91.20
2023-02-23T02:09:39.128Z,91.30
2023-02-23T02:12:26.054Z,91.30
2023-02-23T02:15:19.338Z,91.30
2023-02-23T02:18:23.369Z,91.30
2023-02-23T02:21:24.718Z,91.30
2023-02-23T02:24:31.280Z,91.40
2023-02-23T02:27:47.566Z,91.50
2023-02-23T02:31:01.470Z,91.60
2023-02-23T02:34:12.547Z,91.40
2023-02-23T02:37:08.143Z,91.00
2023-02-23T02:40:16.284Z,90.70
2023-02-23T02:43:22.235Z,90.40
2023-02-23T02:46:20.336Z,90.90
2023-02-23T02:49:17.458Z,90.90
2023-02-23T02:52:25.812Z,91.20
2023-02-23T02:55:23.762Z,91.00
2023-02-23T02:58:12.473Z,91.10
2023-02-23T03:01:31.160Z,91.00
2023-02-23T03:04:43.907Z,90.80
2023-02-23T03:07:57.655Z,91.00
2023-02-23T03:11:02.039Z,91.00
2023-02-23T03:14:30.959Z,90.90
2023-02-23T03:18:00.736Z,91.00
2023-02-23T03:21:12.542Z,91.10
2023-02-23T03:24:34.307Z,91.20
2023-02-23T03:28:00.765Z,91.40
2023-02-23T03:31:38.936Z,91.50
2023-02-23T03:35:04.660Z,91.70
2023-02-23T03:38:22.012Z,91.90
2023-02-23T03:41:29.926Z,92.00
2023-02-23T03:44:40.109Z,92.00
2023-02-23T03:47:48.580Z,91.90
2023-02-23T03:50:59.107Z,91.60
2023-02-23T03:54:12.755Z,91.70
2023-02-23T03:57:21.226Z,91.70
2023-02-23T04:00:31.030Z,91.60
2023-02-23T04:03:38.487Z,91.50
2023-02-23T04:06:46.674Z,91.30
2023-02-23T04:09:51.343Z,90.50
2023-02-23T04:13:15.318Z,90.50
2023-02-23T04:16:07.443Z,91.20
2023-02-23T04:18:54.650Z,91.40
2023-02-23T04:21:40.724Z,91.40
2023-02-23T04:24:26.811Z,91.40
2023-02-23T04:27:13.771Z,91.80
2023-02-23T04:30:00.369Z,92.10
2023-02-23T04:32:46.468Z,92.20
2023-02-23T04:35:32.864Z,92.40
2023-02-23T04:38:19.332Z,92.70
2023-02-23T04:41:05.592Z,93.00
2023-02-23T04:43:51.798Z,92.50
2023-02-23T04:46:37.815Z,91.50
2023-02-23T04:49:24.361Z,91.30
2023-02-23T04:52:10.322Z,91.50
2023-02-23T04:54:56.347Z,91.50
2023-02-23T04:57:42.363Z,91.30
2023-02-23T05:00:29.612Z,91.70
2023-02-23T05:03:17.504Z,92.40
2023-02-23T05:06:04.119Z,92.50
2023-02-23T05:08:50.379Z,92.60
2023-02-23T05:11:36.985Z,92.10
2023-02-23T05:14:23.277Z,92.50
2023-02-23T05:17:09.467Z,92.60
2023-02-23T05:19:56.283Z,92.80
2023-02-23T05:22:42.690Z,92.90
2023-02-23T05:25:28.814Z,92.60
2023-02-23T05:28:14.798Z,92.60
2023-02-23T05:31:01.292Z,92.80
2023-02-23T05:33:47.692Z,93.30
2023-02-23T05:36:33.762Z,93.20
2023-02-23T05:39:19.845Z,93.60
2023-02-23T05:42:06.108Z,93.50
2023-02-23T05:44:52.072Z,93.50
2023-02-23T05:47:38.939Z,93.20
2023-02-23T05:50:25.442Z,93.30
2023-02-23T05:53:11.875Z,93.60
2023-02-23T05:55:58.015Z,93.40
2023-02-23T05:58:44.185Z,93.70
2023-02-23T06:01:30.665Z,93.70
2023-02-23T06:04:17.360Z,93.70
2023-02-23T06:07:03.436Z,93.50
2023-02-23T06:09:49.625Z,93.50
2023-02-23T06:12:35.758Z,93.60
2023-02-23T06:15:21.903Z,93.80
2023-02-23T06:18:09.134Z,93.60
2023-02-23T06:20:55.369Z,93.40
2023-02-23T06:23:41.227Z,93.20
2023-02-23T06:26:27.698Z,93.10
2023-02-23T06:29:14.615Z,93.20
2023-02-23T06:32:01.199Z,93.40
2023-02-23T06:34:47.349Z,93.60
2023-02-23T06:37:35.395Z,93.90
2023-02-23T06:40:21.639Z,93.90
2023-02-23T06:43:08.003Z,93.90
2023-02-23T06:45:53.950Z,93.90
2023-02-23T06:48:41.184Z,93.80
2023-02-23T06:51:27.314Z,93.80
2023-02-23T06:54:13.443Z,93.80
2023-02-23T06:56:59.478Z,93.70
2023-02-23T06:59:46.172Z,93.60
2023-02-23T07:02:32.218Z,93.80
2023-02-23T07:05:18.345Z,93.60
2023-02-23T07:08:04.671Z,93.70
2023-02-23T07:10:50.969Z,93.60
2023-02-23T07:13:37.019Z,93.50
2023-02-23T07:16:24.500Z,93.70
2023-02-23T07:19:10.874Z,93.90
2023-02-23T07:21:56.765Z,94.10
2023-02-23T07:24:42.569Z,94.20
2023-02-23T07:27:28.686Z,94.30
2023-02-23T07:30:15.358Z,94.20
2023-02-23T07:33:01.355Z,94.30
2023-02-23T07:35:49.916Z,93.70
2023-02-23T07:38:36.606Z,93.50
2023-02-23T07:41:23.159Z,93.30
2023-02-23T07:44:09.528Z,93.50
2023-02-23T07:46:55.634Z,93.50
2023-02-23T07:49:41.616Z,93.50
2023-02-23T07:52:28.003Z,93.50
2023-02-23T07:55:14.128Z,93.50
2023-02-23T07:58:00.364Z,93.50
2023-02-23T08:00:46.420Z,93.30
2023-02-23T08:03:32.790Z,93.20
2023-02-23T08:06:19.599Z,93.00
2023-02-23T08:09:05.909Z,92.90
2023-02-23T08:11:52.085Z,92.90
2023-02-23T08:14:38.028Z,92.70
2023-02-23T08:17:23.978Z,93.00
2023-02-23T08:20:11.081Z,92.60
2023-02-23T08:22:57.991Z,92.40
2023-02-23T08:25:44.181Z,92.20
2023-02-23T08:28:31.239Z,92.30
2023-02-23T08:31:21.356Z,92.40
2023-02-23T08:34:08.111Z,92.40
2023-02-23T08:36:54.480Z,92.40
2023-02-23T08:39:42.804Z,92.20
2023-02-23T08:42:29.709Z,92.10
2023-02-23T08:45:16.097Z,92.30
2023-02-23T08:48:01.916Z,92.40
2023-02-23T08:50:49.844Z,92.20
2023-02-23T08:53:36.344Z,92.00
2023-02-23T08:56:25.148Z,92.00
2023-02-23T08:59:13.144Z,91.80
2023-02-23T09:01:59.212Z,91.80
2023-02-23T09:04:45.539Z,91.80
2023-02-23T09:07:31.689Z,92.10
2023-02-23T09:10:20.427Z,91.90
2023-02-23T09:13:06.901Z,91.50
2023-02-23T09:15:54.312Z,91.40
2023-02-23T09:18:41.148Z,91.10
2023-02-23T09:21:28.984Z,91.10
2023-02-23T09:24:15.069Z,90.80
2023-02-23T09:27:01.503Z,91.20
2023-02-23T09:29:47.795Z,91.00
2023-02-23T09:32:33.948Z,90.50
2023-02-23T09:35:22.535Z,90.50
2023-02-23T09:38:08.906Z,90.60
2023-02-23T09:40:55.136Z,90.80
2023-02-23T09:43:50.760Z,90.80
2023-02-23T09:46:49.834Z,90.70
2023-02-23T09:49:40.960Z,90.50
2023-02-23T09:52:42.322Z,90.20
2023-02-23T09:55:30.239Z,90.20
2023-02-23T09:58:43.003Z,90.00
2023-02-23T10:01:52.463Z,89.80
2023-02-23T10:04:47.786Z,90.00
2023-02-23T10:07:52.251Z,89.80
2023-02-23T10:10:43.676Z,89.30
2023-02-23T10:13:46.583Z,88.90
2023-02-23T10:17:03.871Z,88.20
2023-02-23T10:20:11.677Z,88.10
2023-02-23T10:23:04.311Z,87.20
2023-02-23T10:25:54.313Z,88.50
2023-02-23T10:28:40.477Z,87.60
2023-02-23T10:31:26.400Z,86.80
2023-02-23T10:34:17.779Z,87.40
2023-02-23T10:37:07.053Z,87.60
2023-02-23T10:39:53.776Z,87.40
2023-02-23T10:42:40.012Z,87.50
2023-02-23T10:45:28.632Z,88.10
2023-02-23T10:48:24.378Z,88.40
2023-02-23T10:51:20.117Z,87.80
2023-02-23T10:54:47.539Z,88.20
2023-02-23T10:57:40.045Z,87.00
2023-02-23T11:00:32.816Z,86.90
2023-02-23T11:03:33.744Z,86.90
2023-02-23T11:06:35.519Z,85.70
2023-02-23T11:09:45.014Z,87.10
2023-02-23T11:12:35.413Z,87.60
2023-02-23T11:15:32.137Z,87.20
2023-02-23T11:18:25.020Z,86.90
2023-02-23T11:21:13.391Z,87.70
2023-02-23T11:24:06.656Z,86.20
2023-02-23T11:26:57.923Z,85.00
2023-02-23T11:29:50.827Z,83.40
2023-02-23T11:32:38.758Z,82.10
2023-02-23T11:35:28.139Z,81.10
2023-02-23T11:38:24.464Z,82.60
2023-02-23T11:41:24.570Z,81.70
2023-02-23T11:44:24.966Z,81.30
2023-02-23T11:47:20.706Z,80.30
2023-02-23T11:50:07.844Z,78.90
2023-02-23T11:53:15.628Z,78.00
2023-02-23T11:56:08.097Z,78.00
2023-02-23T11:58:55.730Z,78.20
2023-02-23T12:01:51.203Z,79.20
2023-02-23T12:04:40.612Z,79.90
2023-02-23T12:07:56.525Z,79.80
2023-02-23T12:10:47.979Z,79.50
2023-02-23T12:13:53.781Z,79.90
2023-02-23T12:16:45.656Z,80.50
2023-02-23T12:19:33.940Z,79.80
2023-02-23T12:22:26.682Z,80.30
2023-02-23T12:25:23.008Z,78.20
2023-02-23T12:28:20.584Z,77.40
2023-02-23T12:31:40.822Z,78.00
2023-02-23T12:34:39.559Z,77.30
2023-02-23T12:37:29.297Z,77.20
2023-02-23T12:40:44.201Z,77.30
2023-02-23T12:43:39.905Z,78.10
2023-02-23T12:46:35.519Z,80.40
2023-02-23T12:49:27.494Z,81.20
2023-02-23T12:52:19.853Z,81.70
2023-02-23T12:55:12.058Z,80.90
2023-02-23T12:58:14.630Z,80.90
2023-02-23T13:01:16.901Z,80.10
2023-02-23T13:04:17.443Z,80.50
2023-02-23T13:07:11.102Z,79.90
2023-02-23T13:10:10.959Z,80.30
2023-02-23T13:13:20.748Z,79.00
2023-02-23T13:16:21.690Z,78.80
2023-02-23T13:19:18.597Z,78.10
2023-02-23T13:22:26.645Z,78.00
2023-02-23T13:25:36.996Z,77.00
2023-02-23T13:28:45.457Z,76.60
2023-02-23T13:31:36.388Z,74.90
2023-02-23T13:34:30.052Z,74.40
2023-02-23T13:37:21.316Z,73.50
2023-02-23T13:40:32.870Z,74.40
2023-02-23T13:43:29.030Z,74.20
2023-02-23T13:46:19.397Z,74.70
2023-02-23T13:49:16.552Z,74.40
2023-02-23T13:52:25.966Z,74.60
2023-02-23T13:55:28.342Z,74.30
2023-02-23T13:58:27.072Z,75.50
2023-02-23T14:01:20.605Z,74.60
2023-02-23T14:04:14.009Z,75.60
2023-02-23T14:07:05.086Z,74.80
2023-02-23T14:09:58.460Z,75.60
2023-02-23T14:13:14.031Z,76.40
2023-02-23T14:16:14.651Z,76.80
2023-02-23T14:19:03.906Z,74.20
2023-02-23T14:21:57.343Z,72.50
2023-02-23T14:24:43.630Z,71.80
2023-02-23T14:27:42.243Z,71.20
2023-02-23T14:30:29.771Z,71.70
2023-02-23T14:33:48.499Z,72.70
2023-02-23T14:36:37.832Z,73.20
2023-02-23T14:39:28.446Z,74.30
2023-02-23T14:42:22.969Z,75.20
2023-02-23T14:45:26.931Z,75.40
2023-02-23T14:48:15.731Z,75.20
2023-02-23T14:51:42.155Z,76.00
2023-02-23T14:54:36.880Z,76.00
2023-02-23T14:57:25.671Z,76.30
2023-02-23T15:00:15.107Z,76.60
2023-02-23T15:03:05.643Z,76.20
2023-02-23T15:05:58.862Z,76.40
2023-02-23T15:08:45.840Z,76.80
2023-02-23T15:11:32.122Z,76.30
2023-02-23T15:14:27.659Z,76.60
2023-02-23T15:17:20.783Z,77.40
2023-02-23T15:20:16.578Z,77.50
2023-02-23T15:23:05.819Z,78.00
2023-02-23T15:25:52.899Z,78.60
2023-02-23T15:28:40.535Z,78.80
2023-02-23T15:31:30.798Z,78.80
2023-02-23T15:34:20.037Z,79.10
2023-02-23T15:37:29.143Z,79.40
2023-02-23T15:40:22.409Z,79.00
2023-02-23T15:43:11.304Z,79.70
2023-02-23T15:46:04.268Z,80.30
2023-02-23T15:48:52.043Z,80.70
2023-02-23T15:51:51.175Z,80.50
2023-02-23T15:54:49.306Z,80.80
2023-02-23T15:57:47.970Z,80.40
2023-02-23T16:00:40.773Z,80.50
2023-02-23T16:03:33.111Z,80.80
2023-02-23T16:06:26.829Z,80.90
2023-02-23T16:09:26.644Z,80.80
2023-02-23T16:12:29.179Z,81.10
2023-02-23T16:15:33.104Z,80.70
2023-02-23T16:18:23.110Z,81.10
2023-02-23T16:21:17.202Z,81.60
2023-02-23T16:24:09.388Z,81.90
2023-02-23T16:27:02.233Z,82.00
2023-02-23T16:29:57.213Z,82.10
2023-02-23T16:32:44.741Z,82.00
2023-02-23T16:35:37.724Z,82.00
2023-02-23T16:38:28.019Z,82.10
2023-02-23T16:41:22.319Z,82.30
2023-02-23T16:44:14.399Z,82.20
2023-02-23T16:47:03.429Z,82.30
2023-02-23T16:49:50.552Z,82.60
2023-02-23T16:52:36.977Z,82.50
2023-02-23T16:55:27.861Z,82.70
2023-02-23T16:58:19.631Z,82.70
2023-02-23T17:01:06.468Z,82.70
2023-02-23T17:03:55.657Z,83.20
2023-02-23T17:06:43.480Z,83.60
2023-02-23T17:09:29.444Z,84.10
2023-02-23T17:12:21.470Z,84.40
2023-02-23T17:15:16.614Z,85.00
2023-02-23T17:18:03.587Z,85.20
2023-02-23T17:20:51.186Z,85.30
2023-02-23T17:23:42.613Z,85.70
2023-02-23T17:26:29.342Z,86.20
2023-02-23T17:29:15.574Z,86.20
2023-02-23T17:32:02.390Z,86.00
2023-02-23T17:34:50.154Z,85.60
2023-02-23T17:37:37.510Z,85.80
2023-02-23T17:40:36.244Z,85.40
2023-02-23T17:43:24.048Z,86.30
2023-02-23T17:46:11.748Z,86.10
2023-02-23T17:48:57.864Z,86.60
2023-02-23T17:51:44.025Z,86.90
2023-02-23T17:54:30.457Z,87.10
2023-02-23T17:57:16.529Z,87.70
2023-02-23T18:00:02.782Z,88.70
2023-02-23T18:02:57.646Z,88.90
2023-02-23T18:05:43.571Z,89.40
2023-02-23T18:08:31.393Z,89.50
2023-02-23T18:11:18.668Z,89.50
2023-02-23T18:14:04.975Z,89.30
2023-02-23T18:16:51.026Z,89.40
2023-02-23T18:19:36.963Z,88.10
2023-02-23T18:22:23.081Z,88.20
2023-02-23T18:25:19.450Z,89.90
2023-02-23T18:28:05.863Z,90.30
2023-02-23T18:30:51.824Z,90.80
2023-02-23T18:33:38.303Z,91.30
2023-02-23T18:36:28.957Z,91.30
2023-02-23T18:39:15.117Z,91.40
2023-02-23T18:42:04.368Z,91.20
2023-02-23T18:44:51.827Z,91.40
2023-02-23T18:47:37.877Z,91.20
2023-02-23T18:50:26.433Z,91.60
2023-02-23T18:53:12.812Z,91.80
2023-02-23T18:56:04.796Z,92.30
2023-02-23T18:58:52.751Z,92.90
2023-02-23T19:01:38.916Z,93.00
2023-02-23T19:04:25.105Z,92.80
2023-02-23T19:07:11.376Z,92.40
2023-02-23T19:10:03.620Z,92.60
2023-02-23T19:12:49.796Z,93.10
2023-02-23T19:15:36.626Z,93.00
2023-02-23T19:18:22.695Z,92.30
2023-02-23T19:21:08.677Z,92.60
2023-02-23T19:23:59.467Z,93.20
2023-02-23T19:26:45.476Z,93.20
2023-02-23T19:29:31.511Z,93.60
2023-02-23T19:32:18.000Z,94.30
2023-02-23T19:35:04.696Z,93.80
2023-02-23T19:37:52.744Z,94.40
2023-02-23T19:40:42.602Z,94.20
2023-02-23T19:43:28.447Z,94.00
2023-02-23T19:46:17.171Z,93.40
2023-02-23T19:49:04.194Z,93.10
2023-02-23T19:51:52.827Z,92.90
2023-02-23T19:54:38.930Z,92.30
2023-02-23T19:57:25.129Z,92.50
2023-02-23T20:00:12.466Z,92.30
2023-02-23T20:03:01.562Z,92.90
2023-02-23T20:05:47.680Z,92.50
2023-02-23T20:08:34.270Z,93.00
2023-02-23T20:11:20.653Z,93.60
2023-02-23T20:14:08.123Z,94.20
2023-02-23T20:16:54.394Z,94.20
2023-02-23T20:19:40.871Z,94.30
2023-02-23T20:22:27.215Z,94.60
2023-02-23T20:25:15.776Z,94.80
2023-02-23T20:28:02.590Z,94.70
2023-02-23T20:30:48.658Z,94.80
2023-02-23T20:33:34.527Z,94.70
2023-02-23T20:36:22.688Z,94.40
2023-02-23T20:39:11.728Z,94.30
2023-02-23T20:41:57.709Z,94.40
2023-02-23T20:44:43.623Z,94.90
2023-02-23T20:47:29.665Z,94.70
2023-02-23T20:50:15.851Z,94.70
2023-02-23T20:53:02.492Z,95.00
2023-02-23T20:55:49.428Z,94.80
2023-02-23T20:58:36.276Z,94.80
2023-02-23T21:01:25.838Z,94.80
2023-02-23T21:04:13.168Z,95.10
2023-02-23T21:07:00.165Z,95.40
2023-02-23T21:09:46.383Z,95.60
2023-02-23T21:12:32.253Z,95.30
2023-02-23T21:15:18.303Z,95.00
2023-02-23T21:18:05.150Z,94.90
2023-02-23T21:20:51.367Z,95.20
2023-02-23T21:23:44.853Z,95.10
2023-02-23T21:26:31.623Z,94.60
2023-02-23T21:29:18.600Z,94.60
2023-02-23T21:32:06.252Z,94.50
2023-02-23T21:34:52.316Z,94.40
2023-02-23T21:37:40.392Z,94.70
2023-02-23T21:40:26.432Z,94.70
2023-02-23T21:43:13.011Z,94.60
2023-02-23T21:45:59.540Z,94.80
2023-02-23T21:48:45.404Z,94.90
2023-02-23T21:51:34.741Z,95.00
2023-02-23T21:54:21.524Z,94.90
2023-02-23T21:57:07.351Z,94.90
2023-02-23T21:59:53.699Z,95.00
2023-02-23T22:02:41.202Z,95.20
2023-02-23T22:05:27.289Z,95.20
2023-02-23T22:08:15.677Z,95.10
2023-02-23T22:11:07.023Z,94.90
2023-02-23T22:13:58.763Z,94.80
2023-02-23T22:16:45.440Z,95.10
2023-02-23T22:19:31.342Z,95.50
2023-02-23T22:22:20.064Z,95.70
2023-02-23T22:25:07.873Z,96.20
2023-02-23T22:27:53.754Z,96.10
2023-02-23T22:30:42.873Z,96.30
2023-02-23T22:33:29.360Z,96.40
2023-02-23T22:36:18.023Z,96.20
2023-02-23T22:39:09.726Z,96.10
2023-02-23T22:41:55.739Z,96.00
2023-02-23T22:44:41.708Z,96.10
2023-02-23T22:47:27.725Z,95.90
2023-02-23T22:50:17.887Z,96.20
2023-02-23T22:53:04.824Z,96.10
2023-02-23T22:55:54.068Z,95.90
2023-02-23T22:58:42.163Z,95.60
2023-02-23T23:01:28.568Z,95.30
2023-02-23T23:04:15.148Z,95.50
2023-02-23T23:07:01.652Z,95.40
2023-02-23T23:09:47.718Z,95.60
2023-02-23T23:12:34.406Z,95.70
2023-02-23T23:15:22.165Z,95.90
2023-02-23T23:18:14.149Z,95.90
2023-02-23T23:21:03.643Z,95.80
2023-02-23T23:23:51.845Z,95.70
2023-02-23T23:26:39.725Z,96.20
2023-02-23T23:29:27.981Z,96.20
2023-02-23T23:32:18.723Z,96.30
2023-02-23T23:35:10.952Z,96.10
2023-02-23T23:37:57.345Z,96.20
2023-02-23T23:40:46.899Z,95.90
2023-02-23T23:43:36.951Z,96.00
2023-02-23T23:46:32.082Z,96.20
2023-02-23T23:49:25.560Z,96.20
2023-02-23T23:52:17.746Z,96.30
2023-02-23T23:55:04.723Z,96.30
2023-02-23T23:57:50.746Z,96.20
